METAR Data
IDs: Format: Raw Decoded Include TAF

Data at: 1044 UTC 18 Jan 2022

K96D 181035Z AUTO 00000KT 10SM OVC005 M10/M10 A2943 RMK AO2
K96D 181015Z AUTO 00000KT 10SM OVC005 M10/M10 A2945 RMK AO2
K96D 180955Z AUTO 32005KT 10SM OVC005 M11/M11 A2947 RMK AO2
K96D 180935Z AUTO 32003KT 10SM OVC006 M11/M11 A2947 RMK AO2
K96D 180915Z AUTO 00000KT 10SM OVC007 M11/M11 A2949 RMK AO2
K96D 180855Z AUTO 34003KT 10SM BKN012 OVC016 M11/M11 A2950 RMK AO2
K96D 180835Z AUTO 00000KT 8SM -SN FEW002 SCT015 BKN028 M11/M11 A2952 RMK AO2
K96D 180815Z AUTO 00000KT 4SM -SN FEW002 SCT008 BKN015 M11/M11 A2953 RMK AO2
K96D 180755Z AUTO 00000KT 2 1/2SM -SN BKN002 BKN015 BKN032 M11/M11 A2954 RMK AO2
K96D 180735Z AUTO 00000KT 2SM -SN BKN002 M11/M11 A2957 RMK AO2
K96D 180715Z AUTO 00000KT 1 3/4SM -SN BKN002 M11/M11 A2959 RMK AO2
K96D 180655Z AUTO 00000KT 1 1/2SM -SN OVC002 M11/M11 A2961 RMK AO2
K96D 180635Z AUTO 04003KT 1 1/4SM -SN OVC002 M11/M11 A2963 RMK AO2
K96D 180615Z AUTO 35004KT 1SM -SN OVC002 M11/M11 A2966 RMK AO2
K96D 180555Z AUTO 00000KT 2SM -SN OVC002 M11/M11 A2966 RMK AO2
K96D 180535Z AUTO 01003KT 3SM -SN SCT002 BKN013 M11/M11 A2967 RMK AO2
K96D 180515Z AUTO 00000KT 5SM -SN OVC013 M11/M11 A2967 RMK AO2
K96D 180455Z AUTO 00000KT 5SM -SN FEW003 BKN015 OVC033 M11/M11 A2968 RMK AO2
K96D 180435Z AUTO 00000KT 3SM -SN SCT011 BKN016 OVC032 M11/M11 A2970 RMK AO2
K96D 180415Z AUTO 00000KT 10SM BKN012 BKN026 OVC050 M11/M11 A2972 RMK AO2
K96D 180355Z AUTO 00000KT 10SM FEW014 BKN026 OVC050 M11/M11 A2973 RMK AO2
K96D 180335Z AUTO 03004KT 10SM OVC025 M11/M11 A2974 RMK AO2
K96D 180315Z AUTO 04003KT 9SM -SN BKN025 OVC070 M12/M11 A2975 RMK AO2
K96D 180255Z AUTO 04004KT 9SM -SN BKN024 OVC070 M12/M12 A2975 RMK AO2
K96D 180235Z AUTO 36004KT 10SM OVC024 M12/M12 A2978 RMK AO2
K96D 180215Z AUTO 00000KT 10SM OVC024 M12/M12 A2978 RMK AO2
K96D 180155Z AUTO 02004KT 10SM FEW011 OVC021 M12/M12 A2979 RMK AO2
K96D 180135Z AUTO 03005KT 10SM SCT011 OVC023 M12/M12 A2980 RMK AO2
K96D 180115Z AUTO 36004KT 10SM FEW011 OVC024 M12/M12 A2982 RMK AO2
K96D 180055Z AUTO 01005KT 10SM FEW009 OVC024 M12/M12 A2981 RMK AO2
K96D 180035Z AUTO 05004KT 10SM FEW008 OVC023 M12/M12 A2980 RMK AO2
K96D 180015Z AUTO 04006KT 10SM FEW005 SCT010 OVC023 M12/M12 A2982 RMK AO2
K96D 172355Z AUTO 02006KT 10SM FEW004 BKN010 OVC023 M12/M12 A2983 RMK AO2
K96D 172335Z AUTO 01006KT 10SM FEW005 BKN010 OVC025 M12/M12 A2984 RMK AO2
K96D 172315Z AUTO 01009KT 10SM FEW010 OVC025 M11/M11 A2985 RMK AO2
K96D 172255Z AUTO 02007KT 10SM -SN OVC026 M11/M11 A2985 RMK AO2
K96D 172235Z AUTO 01008KT 10SM SCT004 BKN028 OVC045 M11/M11 A2985 RMK AO2
K96D 172215Z AUTO 01007KT 10SM BKN004 OVC044 M11/M11 A2984 RMK AO2
K96D 172155Z AUTO 02006KT 10SM BKN004 OVC044 M11/M11 A2984 RMK AO2
K96D 172135Z AUTO 02008KT 10SM BKN004 OVC045 M11/M11 A2984 RMK AO2
K96D 172115Z AUTO 02008KT 10SM SCT003 SCT006 OVC046 M11/M11 A2984 RMK AO2
K96D 172055Z AUTO 02009KT 10SM BKN005 OVC045 M10/M10 A2984 RMK AO2
K96D 172035Z AUTO 01011KT 10SM SCT005 OVC046 M10/M10 A2984 RMK AO2
K96D 172015Z AUTO 02010KT 10SM SCT022 OVC046 M10/M10 A2984 RMK AO2
K96D 171955Z AUTO 02008G13KT 10SM BKN023 OVC049 M10/M10 A2984 RMK AO2
K96D 171935Z AUTO 01011KT 10SM OVC023 M10/M10 A2985 RMK AO2
K96D 171915Z AUTO 02010KT 10SM OVC024 M10/M10 A2985 RMK AO2
K96D 171855Z AUTO 02009KT 10SM OVC025 M10/M10 A2988 RMK AO2
K96D 171835Z AUTO 01009KT 9SM OVC026 M09/M09 A2986 RMK AO2
K96D 171815Z AUTO 02011KT 9SM -SN FEW006 FEW010 BKN026 M10/M09 A2987 RMK AO2
K96D 171755Z AUTO 02011KT 9SM -SN FEW006 SCT009 BKN026 M09/M09 A2987 RMK AO2
K96D 171735Z AUTO 01009G14KT 10SM FEW006 OVC026 M09/M09 A2988 RMK AO2
K96D 171715Z AUTO 01012KT 10SM OVC027 M09/M09 A2988 RMK AO2
K96D 171655Z AUTO 01014KT 10SM OVC027 M09/M09 A2987 RMK AO2
K96D 171635Z AUTO 02012KT 10SM OVC028 M08/M08 A2986 RMK AO2
K96D 171615Z AUTO 02013KT 10SM SCT016 OVC028 M08/M08 A2986 RMK AO2
K96D 171555Z AUTO 03013KT 10SM OVC016 M08/M08 A2985 RMK AO2
K96D 171535Z AUTO 02011G16KT 10SM OVC015 M07/M07 A2984 RMK AO2
K96D 171515Z AUTO 01014KT 10SM FEW007 OVC013 M07/M07 A2984 RMK AO2
K96D 171455Z AUTO 01012KT 10SM BKN007 OVC011 M06/M06 A2982 RMK AO2
K96D 171435Z AUTO 01012KT 9SM OVC006 M05/M05 A2981 RMK AO2
K96D 171415Z AUTO 36013KT 10SM OVC007 M05/M04 A2980 RMK AO2
K96D 171355Z AUTO 01015KT 10SM BKN008 BKN013 OVC030 M04/M04 A2981 RMK AO2
K96D 171335Z AUTO 36012KT 10SM BKN010 BKN013 OVC030 M03/M03 A2981 RMK AO2
K96D 171315Z AUTO 36009KT 10SM -UP OVC011 M03/M02 A2981 RMK AO2
K96D 171255Z AUTO 33010KT 10SM OVC012 M02/M02 A2980 RMK AO2
K96D 171235Z AUTO 32010KT 9SM -SN BKN013 BKN020 OVC025 M02/M02 A2980 RMK AO2
K96D 171215Z AUTO 31008KT 5SM -SN BKN013 OVC019 M02/M02 A2978 RMK AO2
K96D 171155Z AUTO 30008KT 10SM OVC013 M02/M02 A2978 RMK AO2
K96D 171135Z AUTO 31007KT 10SM OVC014 M02/M02 A2978 RMK AO2
K96D 171115Z AUTO 31006KT 10SM BKN016 BKN045 OVC050 M02/M02 A2977 RMK AO2
K96D 171055Z AUTO 30006KT 10SM OVC049 M02/M02 A2976 RMK AO2
K96D 171035Z AUTO 30006KT 10SM OVC049 M01/M01 A2976 RMK AO2
K96D 171015Z AUTO 29007KT 10SM OVC050 M01/M01 A2976 RMK AO2
K96D 170955Z AUTO 29006KT 10SM OVC050 M02/M02 A2977 RMK AO2
K96D 170935Z AUTO 30006KT 10SM OVC050 M01/M01 A2977 RMK AO2
K96D 170915Z AUTO 32011KT 10SM OVC055 M01/M01 A2977 RMK AO2
K96D 170855Z AUTO 28010KT 10SM OVC060 M01/M01 A2976 RMK AO2
K96D 170835Z AUTO 26012G19KT 10SM OVC060 M01/M01 A2976 RMK AO2
K96D 170815Z AUTO 26012G17KT 10SM OVC055 M01/M01 A2976 RMK AO2
K96D 170755Z AUTO 26011KT 10SM SCT055 M01/M01 A2976 RMK AO2
K96D 170735Z AUTO 26010G17KT 10SM FEW050 FEW055 M01/M01 A2976 RMK AO2
K96D 170715Z AUTO 26012G19KT 10SM SCT049 BKN055 M01/M00 A2976 RMK AO2
K96D 170655Z AUTO 25009G18KT 10SM OVC050 M01/M01 A2976 RMK AO2
K96D 170635Z AUTO 25010G16KT 10SM OVC050 M00/M00 A2977 RMK AO2
K96D 170615Z AUTO 25011G18KT 10SM OVC055 M01/M01 A2977 RMK AO2
K96D 170555Z AUTO 25012G19KT 10SM OVC055 M01/M01 A2978 RMK AO2
K96D 170535Z AUTO 25011G18KT 10SM OVC060 M01/M01 A2978 RMK AO2
K96D 170515Z AUTO VRB05G14KT 10SM OVC060 M01/M01 A2980 RMK AO2
K96D 170455Z AUTO VRB04G11KT 10SM OVC060 M02/M02 A2980 RMK AO2
K96D 170435Z AUTO 21005KT 10SM OVC060 M04/M04 A2981 RMK AO2
K96D 170415Z AUTO 12006KT 10SM OVC060 M07/M07 A2982 RMK AO2
K96D 170355Z AUTO 00000KT 10SM OVC060 M07/M07 A2983 RMK AO2
K96D 170335Z AUTO 17005KT 10SM BKN060 M07/M07 A2982 RMK AO2
K96D 170315Z AUTO 17006KT 10SM SCT055 M06/M06 A2984 RMK AO2
K96D 170255Z AUTO 20008KT 10SM OVC050 M06/M06 A2986 RMK AO2
K96D 170235Z AUTO 19007KT 10SM OVC050 M06/M06 A2988 RMK AO2
K96D 170215Z AUTO 00000KT 10SM SCT028 OVC055 M06/M06 A2989 RMK AO2
K96D 170155Z AUTO 16004KT 10SM OVC028 M05/M05 A2990 RMK AO2
K96D 170135Z AUTO 17004KT 10SM FEW018 OVC026 M05/M05 A2990 RMK AO2
K96D 170115Z AUTO 00000KT 10SM BKN018 OVC025 M05/M05 A2991 RMK AO2
K96D 170055Z AUTO 15004KT 10SM FEW018 OVC026 M05/M05 A2991 RMK AO2
K96D 170035Z AUTO 14003KT 10SM OVC029 M05/M05 A2992 RMK AO2
K96D 170015Z AUTO 13003KT 10SM BKN026 OVC032 M05/M05 A2992 RMK AO2
K96D 162355Z AUTO 00000KT 10SM OVC032 M05/M05 A2993 RMK AO2
K96D 162335Z AUTO 00000KT 10SM OVC031 M05/M05 A2993 RMK AO2
K96D 162315Z AUTO 00000KT 10SM OVC032 M05/M05 A2993 RMK AO2
K96D 162255Z AUTO 04003KT 10SM OVC032 M05/M05 A2992 RMK AO2